Tiempo atmosférico en la estación meteorológica de Andújar, Jaén (193 m.)



Fecha
DESCASC
Temp. máxima en grados centígrados (hora)
DESCASC
Temp. mínima en grados centígrados (hora)
DESCASC
Temp. media en grados centígrados
DESCASC
Racha de viento máxima en m/sg (hora)
DESCASC
Velocidad máxima media en intervalos de 10 minutos(hora)
DESCASC
Precipitaciones diarias en mm
DESCASC
Precipitaciones de 00:00 a 06:00 en mm
DESCASC
Precipitaciones de 06:00 a 12:00 en mm
DESCASC
Precipitaciones de 12:00 a 18:00 en mm
DESCASC
Precipitaciones de 18:00 a 24:00 en mm
DESCASC
10-10-2019 32.5 (17:40) 13.8 (08:20) 23.2 5.83 (23:50) 3.89 (23:50) 0 0 0 0 0
09-10-2019 32.9 (17:10) 13.1 (08:00) 23 6.67 (16:30) 2.78 (17:50) 0 0 0 0 0
08-10-2019 34 (16:50) 12.7 (07:20) 23.3 6.11 (15:00) 3.61 (20:30) 0 0 0 0 0
07-10-2019 34.4 (17:00) 10.3 (08:20) 22.4 5.83 (14:10) 3.33 (14:00) 0 0 0 0 0
06-10-2019 32.8 (16:40) 10.7 (00:00) 21.7 3.61 (20:30) 2.22 (20:30) 0 0 0 0 0
05-10-2019 30.8 (17:00) 11.1 (00:00) 20.9 5 (16:00) 2.78 (15:50) 0 0 0 0 0
04-10-2019 30.8 (17:30) 9.5 (00:00) 20.1 5.28 (17:00) 2.78 (16:50) 0 0 0 0 0
03-10-2019 29.8 (17:10) 11.2 (00:00) 20.5 5.56 (15:30) 3.06 (19:00) 0 0 0 0 0
02-10-2019 30 (17:40) 11.4 (00:00) 20.7 7.78 (18:20) 4.72 (18:20) 0 0 0 0 0
01-10-2019 31.6 (18:10) 13.5 (00:00) 22.6 8.33 (17:30) 5 (19:00) 0 0 0 0 0
30-09-2019 34.4 (18:00) 12.4 (00:00) 23.4 4.72 (15:40) 2.5 (20:50) 0 0 0 0 0
29-09-2019 34.6 (17:50) 11.4 (00:00) 23 5 (19:00) 3.06 (10:50) 0 0 0 0 0
28-09-2019 35 (17:20) 11.3 (00:00) 23.2 4.72 (11:30) 2.78 (11:00) 0 0 0 0 0
27-09-2019 33.2 (17:20) 10.9 (00:00) 22.1 5.83 (15:00) 2.5 (18:10) 0 0 0 0 0
26-09-2019 32.4 (17:20) 11.6 (00:00) 22 5.28 (16:20) 3.06 (16:20) 0 0 0 0 0
25-09-2019 31.3 (18:10) 14.7 (00:00) 23 5.83 (13:30) 3.06 (14:30) 0 0 0 0 0
24-09-2019 32.5 (18:10) 11.6 (00:00) 22.1 5 (18:00) 2.78 (18:00) 0 0 0 0 0
23-09-2019 29.6 (17:00) 11.7 (00:00) 20.7 4.17 (12:30) 1.94 (12:10) 0 0 0 0 0
22-09-2019 25.7 (17:50) 16.3 (00:00) 21 6.67 (17:30) 4.44 (16:30) 0.2 0.2 0 0 0
21-09-2019 26.1 (15:20) 18.6 (00:00) 22.4 6.67 (16:40) 3.89 (16:40) 0.1 0 0 0 0.1
20-09-2019 27.2 (15:50) 15.1 (00:00) 21.2 5.83 (13:20) 3.33 (13:10) 0 0 0 0 0
19-09-2019 31.3 (18:00) 14.8 (00:00) 23 6.67 (16:30) 3.61 (16:30) 0 0 0 0 0
18-09-2019 31.5 (16:30) 16.6 (00:00) 24.1 5.56 (19:10) 2.78 (19:10) 0 0 0 0 0
17-09-2019 30.3 (17:10) 17.4 (00:00) 23.8 5.56 (15:00) 3.61 (15:00) 0 0 0 0 0
16-09-2019 30.8 (16:30) 16.5 (00:00) 23.6 4.44 (15:20) 1.94 (15:20) 0 0 0 0 0
15-09-2019 28.7 (16:30) 17.9 (00:00) 23.3 8.33 (00:20) 3.89 (00:20) 9.5 7.3 2.1 0.1 0
14-09-2019 27.3 (18:10) 17 (00:00) 22.1 6.67 (13:40) 3.89 (13:40) 18.4 1.2 13.2 4 0

Gráficas

Temp. máximas Temp. mínimas Temp. medias Precipitaciones Rachas de viento máximas Velocidades máximas media en intervalos de 10 minutos

Datos horarios

Fecha y hora oficial Temperatura (ºC) Velocidad del viento (km/h) Dirección del viento Racha (km/h) Dirección de racha Precipitación (mm) Presión (hPa) Tendencia (hPa) Humedad (%)
2019-10-13 23:00:00 18.7 7 Oeste 10 Noroeste 0 988.6 0.5 67
2019-10-13 22:00:00 19.9 0 Calma 6 Este 0 988.3 0.1 58
2019-10-13 21:00:00 21.9 0 Calma 8 Oeste 0 988.4 -0.1 53
2019-10-13 20:00:00 24.2 0 Calma 4 Este 0 988.1 -0.9 43
2019-10-13 19:00:00 28.5 3 Este 8 Noroeste 0 988.2 -1.3 34
2019-10-13 18:00:00 30 3 Norte 10 Noroeste 0 988.5 -1.7 32
2019-10-13 17:00:00 30.1 0 Calma 10 Norte 0 989 -2.7 33
2019-10-13 16:00:00 28.4 3 Este 14 Este 0 989.5 -2.9 37
2019-10-13 15:00:00 28.3 3 Nordeste 12 Este 0 990.2 -2.7 39
2019-10-13 14:00:00 25.4 3 Este 12 Este 0 991.7 -1.4 44
2019-10-13 13:00:00 25.1 0 Calma 9 Norte 0 992.4 -0.4 49
2019-10-13 12:00:00 22.8 2 Sur 10 Este 0 992.9 0.7 55
2019-10-13 11:00:00 21.4 3 Oeste 10 Noroeste 0 993.1 1.2 66
2019-10-13 10:00:00 19.7 2 Noroeste 3 Noroeste 0 992.8 1.2 84
2019-10-13 09:00:00 18.4 0 Calma 6 Sudoeste 0 992.2 0.9 90
2019-10-13 08:00:00 17.9 4 Oeste 5 Oeste 0 991.9 0.7 91
2019-10-13 07:00:00 19 0 Calma 9 Oeste 0 991.6 0 86
2019-10-13 06:00:00 19 0 Calma 5 Oeste 0 991.3 -0.5 88
2019-10-13 05:00:00 18.3 4 Oeste 8 Oeste 0 991.2 -0.5 89
2019-10-13 04:00:00 19 6 Oeste 19 Oeste 0 991.6 0 87
2019-10-13 03:00:00 20.2 12 Oeste 23 Oeste 0 991.8 0.4 84
2019-10-13 02:00:00 21.4 15 Oeste 25 Oeste 0 991.7 0.8 74
2019-10-13 01:00:00 22.5 13 Oeste 22 Sudoeste 0 991.6 1.5 62
2019-10-13 00:00:00 23.2 13 Sudoeste 18 Oeste 0 991.4 1.7 51
2019-10-12 23:00:00 24.2 7 Oeste 15 Sudoeste 0 990.9 2 44
2019-10-12 22:00:00 25.2 11 Oeste 19 Sudoeste 0 990.1 1.6 41
2019-10-12 21:00:00 25.6 9 Oeste 14 Oeste 0 989.7 1.2 37
2019-10-12 20:00:00 26.9 9 Oeste 13 Oeste 0 988.9 -0.1 35
2019-10-12 19:00:00 29.4 0 Calma 7 Sur 0 988.5 -0.8 29
2019-10-12 18:00:00 31.9 0 Calma 9 Este 0 988.5 -1.4 26
2019-10-12 17:00:00 30.9 3 Este 17 Este 0 989 -2 28
2019-10-12 16:00:00 29.9 9 Este 22 Este 0 989.3 -2.9 30
2019-10-12 15:00:00 28.7 12 Este 23 Este 0 989.9 -2.5 35
2019-10-12 14:00:00 26.4 9 Este 21 Este 0 991 -1.7 40
2019-10-12 13:00:00 25.3 7 Sudeste 17 Este 0 992.2 0.2 46
2019-10-12 12:00:00 23 3 Este 8 Este 0 992.4 0.6 53
2019-10-12 11:00:00 21.5 4 Noroeste 14 Sudoeste 0 992.7 0.9 58
2019-10-12 10:00:00 20.3 4 Sur 12 Oeste 0 992 0.6 64
2019-10-12 09:00:00 16.6 2 Noroeste 10 Oeste 0 991.8 0.2 80
2019-10-12 08:00:00 17.5 0 Calma 12 Este 0 991.8 -0.2 74
2019-10-12 07:00:00 17.9 6 Este 13 Este 0 991.4 -0.9 73
2019-10-12 06:00:00 17.8 4 Este 8 Sudeste 0 991.6 -0.7 70
2019-10-12 05:00:00 17.1 0 Calma 4 Oeste 0 992 -0.6 72
2019-10-12 04:00:00 17.2 0 Calma 5 Este 0 992.3 -0.6 69
2019-10-12 03:00:00 18.6 0 Calma 5 Este 0 992.3 -0.7 63
2019-10-12 02:00:00 19.8 0 Calma 15 Sudoeste 0 992.6 -0.3 57
2019-10-12 01:00:00 22.4 10 Sudoeste 16 Sudoeste 0 992.9 0.6 50
2019-10-12 00:00:00 20.9 5 Noroeste 12 Oeste 0 993 1.1 57
2019-10-11 23:00:00 21.4 7 Oeste 9 Oeste 0 992.9 1.1 57
2019-10-11 22:00:00 22.6 3 Oeste 6 Oeste 0 992.3 0.5 50
2019-10-11 21:00:00 23.5 0 Calma 3 Noroeste 0 991.9 0 46
2019-10-11 20:00:00 25.1 5 Oeste 10 Oeste 0 991.8 -0.1 43
2019-10-11 19:00:00 26.8 8 Oeste 17 Noroeste 0 991.8 -0.6 40
2019-10-11 18:00:00 28.1 13 Oeste 21 Oeste 0 991.9 -1 35
2019-10-11 17:00:00 29.5 3 Sudoeste 9 Oeste 0 991.9 -1.8 32
2019-10-11 16:00:00 28.9 7 Sudoeste 12 Oeste 0 992.4 -2.5 32
2019-10-11 15:00:00 29.2 4 Sudeste 19 Este 0 992.9 -2.5 34
2019-10-11 14:00:00 27.2 7 Sudeste 16 Este 0 993.7 -2.1 37
2019-10-11 13:00:00 26.6 6 Este 17 Este 0 994.9 -0.7 42
2019-10-11 12:00:00 24.4 9 Sudeste 17 Este 0 995.4 0.5 51
2019-10-11 11:00:00 21.4 6 Este 15 Este 0 995.8 1.3 63
2019-10-11 10:00:00 19.9 0 Calma 5 Sudeste 0 995.6 1.1 69
2019-10-11 09:00:00 15.8 0 Calma 4 Este 0 994.9 0.9 87
2019-10-11 08:00:00 14.3 0 Calma 4 Sudeste 0 994.5 0.6 90
2019-10-11 07:00:00 15.3 0 Calma 3 Sudoeste 0 994.5 0.5 91
2019-10-11 06:00:00 16 0 Calma 5 Oeste 0 994 0.1 88
2019-10-11 05:00:00 17.7 0 Calma 9 Oeste 0 993.9 0.2 80
2019-10-11 04:00:00 19.5 8 Oeste 16 Oeste 0 994 0.3 73
2019-10-11 03:00:00 19.9 10 Noroeste 18 Oeste 0 993.9 0.6 70
2019-10-11 02:00:00 19.5 0 Calma 6 Sudoeste 0 993.7 0.6 64
2019-10-11 01:00:00 21 3 Noroeste 16 Sudoeste 0 993.7 1 57
2019-10-11 00:00:00 24.2 12 Sudoeste 21 Sudoeste 0 993.3 1.3 49
2019-10-10 23:00:00 23.8 8 Oeste 15 Oeste 0 993.1 1.6 52
2019-10-10 22:00:00 23.4 7 Oeste 9 Oeste 0 992.7 1.3 53
2019-10-10 21:00:00 24.2 2 Sudoeste 5 Sudoeste 0 992 0.6 46
2019-10-10 20:00:00 26.5 3 Sudoeste 6 Oeste 0 991.5 0.1 39
2019-10-10 19:00:00 30.8 5 Oeste 14 Noroeste 0 991.4 -0.4 34
2019-10-10 18:00:00 31.3 8 Noroeste 14 Sudoeste 0 991.4 -0.9 31
2019-10-10 17:00:00 31.2 5 Noroeste 14 Noroeste 0 991.4 -1.8 31
2019-10-10 16:00:00 31.3 5 Oeste 17 Sudoeste 0 991.8 -2.2 32
2019-10-10 15:00:00 31.7 3 Norte 9 Noroeste 0 992.3 -1.9 33
2019-10-10 14:00:00 29.6 0 Calma 8 Este 0 993.2 -1.1 35
2019-10-10 13:00:00 27.8 3 Este 13 Sudeste 0 994 0 39
2019-10-10 12:00:00 25.4 5 Sudeste 12 Este 0 994.2 1 44
2019-10-10 11:00:00 21.5 4 Este 8 Sudeste 0 994.3 1.7 53
2019-10-10 10:00:00 19.8 0 Calma -- -- 0 994 1.6 64
2019-10-10 09:00:00 15.8 0 Calma -- -- 0 993.2 1.1 81
2019-10-10 08:00:00 14.1 0 Calma 5 Este 0 992.6 0.7 85
2019-10-10 07:00:00 15.1 0 Calma 7 Este 0 992.4 0.6 78
2019-10-10 06:00:00 15.2 0 Calma 3 Sudoeste 0 992.1 0.3 79
2019-10-10 05:00:00 15.5 0 Calma 4 Noroeste 0 991.9 0.2 78
2019-10-10 04:00:00 15.8 0 Calma 3 Oeste 0 991.8 0.1 74
2019-10-10 03:00:00 17 2 Sudeste 4 Este 0 991.8 0.5 68
2019-10-10 02:00:00 17.7 0 Calma 6 Este 0 991.7 0.7 65
2019-10-10 01:00:00 18.5 0 Calma 3 Sudeste 0 991.7 1.2 61
2019-10-10 00:00:00 19.4 3 Sudeste 6 Este 0 991.3 1.2 57
2019-10-09 23:00:00 21.2 3 Este 6 Sudeste 0 991 1.5 51
2019-10-09 22:00:00 22.1 0 Calma 3 Oeste 0 990.5 1.3 48
2019-10-09 21:00:00 24.1 0 Calma 9 Sudoeste 0 990.1 0.9 40
2019-10-09 20:00:00 27 6 Sudoeste 9 Sudoeste 0 989.5 -0.2 33
2019-10-09 19:00:00 31.1 8 Oeste 15 Sudoeste 0 989.2 -0.9 28
2019-10-09 18:00:00 32.5 9 Oeste 20 Oeste 0 989.2 -1.4 28
2019-10-09 17:00:00 32.2 9 Oeste 24 Oeste 0 989.7 -1.9 29
2019-10-09 16:00:00 31 8 Oeste 19 Noroeste 0 990.1 -2.3 31
2019-10-09 15:00:00 29.8 9 Oeste 17 Sudoeste 0 990.6 -2.2 34
2019-10-09 14:00:00 28 7 Oeste 15 Oeste 0 991.6 -1.5 38
2019-10-09 13:00:00 26.7 3 Norte 9 Noroeste 0 992.4 -0.4 41
2019-10-09 12:00:00 25 3 Sudeste 9 Sudeste 0 992.8 0.5 45
2019-10-09 11:00:00 22 3 Este 10 Este 0 993.1 1.1 52
2019-10-09 10:00:00 18.8 0 Calma 5 Sur 0 992.8 1 64
2019-10-09 09:00:00 15.1 0 Calma 5 Este 0 992.3 0.6 79
2019-10-09 08:00:00 13.1 3 Oeste 5 Oeste 0 992 0.2 84
2019-10-09 07:00:00 14.3 0 Calma 4 Sudeste 0 991.8 -0.1 80
2019-10-09 06:00:00 14.8 0 Calma 8 Este 0 991.7 -0.4 76
2019-10-09 05:00:00 15.5 4 Sudeste 6 Sudeste 0 991.8 -0.6 72
2019-10-09 04:00:00 16.6 0 Calma 6 Este 0 991.9 -0.4 68
2019-10-09 03:00:00 17.8 0 Calma 4 Oeste 0 992.1 0 64
2019-10-09 02:00:00 19 0 Calma 9 Noroeste 0 992.4 0.6 56
2019-10-09 01:00:00 21.1 8 Noroeste 14 Oeste 0 992.3 1.1 51
2019-10-09 00:00:00 21.6 0 Calma 12 Oeste 0 992.1 1.2 46
2019-10-08 23:00:00 22.9 9 Oeste 12 Oeste 0 991.8 1.6 44
2019-10-08 22:00:00 22.6 6 Oeste 20 Oeste 0 991.2 1.2 44
2019-10-08 21:00:00 26.6 13 Oeste 19 Oeste 0 990.9 0.6 34
2019-10-08 20:00:00 28.4 11 Oeste 16 Oeste 0 990.2 -0.3 32
2019-10-08 19:00:00 31.6 9 Oeste 16 Oeste 0 990 -1.3 27
2019-10-08 18:00:00 33.6 8 Oeste 18 Oeste 0 990.3 -1.8 25
2019-10-08 17:00:00 33.6 8 Oeste 18 Oeste 0 990.5 -2.3 25
2019-10-08 16:00:00 32.1 9 Sudoeste 18 Oeste 0 991.3 -2.1 27
2019-10-08 15:00:00 30.9 9 Oeste 22 Oeste 0 992.1 -1.8 29
2019-10-08 14:00:00 30.7 4 Sudoeste 15 Sudoeste 0 992.8 -1.2 30
2019-10-08 13:00:00 28.9 3 Este 11 Sudeste 0 993.4 -0.4 31
2019-10-08 12:00:00 26 4 Este 10 Este 0 993.9 0.3 38
2019-10-08 11:00:00 22.6 3 Este 8 Este 0 994 1.1 46
2019-10-08 10:00:00 19.4 3 Sudeste 8 Este 0 993.8 1 57
2019-10-08 09:00:00 14 0 Calma 8 Este 0 993.6 1.2 76
2019-10-08 08:00:00 14.1 0 Calma 7 Oeste 0 992.9 0.2 77
2019-10-08 07:00:00 13.6 0 Calma 7 Este 0 992.8 0.2 74
2019-10-08 06:00:00 13.8 3 Este 6 Este 0 992.4 -0.2 72
2019-10-08 05:00:00 15.8 2 Sur 7 Oeste 0 992.7 0 67
2019-10-08 04:00:00 15.4 5 Oeste 7 Oeste 0 992.6 -0.2 70
2019-10-08 03:00:00 15.5 0 Calma 3 Oeste 0 992.6 -0.3 67
2019-10-08 02:00:00 16 3 Este 9 Este 0 992.7 0.2 64
2019-10-08 01:00:00 17.6 0 Calma 5 Sudeste 0 992.8 0.9 58
2019-10-08 00:00:00 17.6 2 Oeste 6 Oeste 0 992.9 1.3 59
2019-10-07 23:00:00 19.1 0 Calma 6 Este 0 992.5 1.2 48
2019-10-07 22:00:00 21.1 0 Calma 6 Sudeste 0 991.9 1 43
2019-10-07 21:00:00 23.6 2 Sudoeste 6 Sudoeste 0 991.6 0.6 36
2019-10-07 20:00:00 26.6 0 Calma 7 Este 0 991.3 0.2 28
2019-10-07 19:00:00 31.3 5 Este 10 Sudeste 0 990.9 -0.6 22
2019-10-07 18:00:00 33.1 2 Nordeste 10 Sudeste 0 991 -1.1 20
2019-10-07 17:00:00 32.8 3 Sur 10 Este 0 991.1 -1.9 20
2019-10-07 16:00:00 33 3 Sur 12 Este 0 991.5 -2.4 21
2019-10-07 15:00:00 30.7 8 Este 21 Este 0 992.1 -2.3 24
2019-10-07 14:00:00 29 12 Este 21 Este 0 993 -1.7 27
2019-10-07 13:00:00 26.6 11 Este 20 Sudeste 0 993.9 -0.6 32
2019-10-07 12:00:00 23.7 9 Sudeste 17 Este 0 994.4 0.2 38
2019-10-07 11:00:00 20.2 5 Este 14 Sudeste 0 994.7 1.1 47
2019-10-07 10:00:00 17.2 2 Este 5 Este 0 994.5 1.2 59
2019-10-07 09:00:00 14.4 0 Calma -- -- 0 994.2 1.1 72
2019-10-07 08:00:00 11 0 Calma 2 Sur 0 993.6 0.3 80
2019-10-07 07:00:00 11.5 0 Calma 3 Noroeste 0 993.3 0 80
2019-10-07 06:00:00 11.7 0 Calma 5 Este 0 993.1 -0.9 76
2019-10-07 05:00:00 12.7 3 Este 7 Sudeste 0 993.3 -0.6 76
2019-10-07 04:00:00 13.2 0 Calma 4 Sudeste 0 993.3 -0.8 70
2019-10-07 03:00:00 13.8 0 Calma 7 Sudeste 0 994 0.1 64
2019-10-07 02:00:00 15 2 Este 6 Este 0 993.9 0 61
2019-10-07 01:00:00 15.7 3 Sudeste 7 Este 0 994.1 0.9 59
2019-10-07 00:00:00 17.2 0 Calma 7 Oeste 0 993.9 1.3 57
2019-10-06 23:00:00 18.8 3 Este 11 Sudoeste 0 993.9 1.8 51
2019-10-06 22:00:00 20.3 0 Calma 9 Oeste 0 993.2 1.3 44
2019-10-06 21:00:00 22.1 5 Noroeste 13 Sudoeste 0 992.6 0.6 36
2019-10-06 20:00:00 24.8 3 Sudoeste 9 Oeste 0 992.1 -0.3 29
2019-10-06 19:00:00 29.3 5 Oeste 10 Sur 0 991.9 -0.9 24
2019-10-06 18:00:00 31.8 6 Sudoeste 12 Oeste 0 992 -1.7 18
2019-10-06 17:00:00 31.8 4 Sudeste 12 Sudeste 0 992.4 -2.2 19
2019-10-06 16:00:00 31.4 4 Sur 12 Sudeste 0 992.8 -2.4 21
2019-10-06 15:00:00 30.5 3 Sudoeste 12 Sudoeste 0 993.7 -1.8 24
2019-10-06 14:00:00 28.9 2 Oeste 11 Sur 0 994.6 -0.9 31
2019-10-06 13:00:00 26.6 0 Calma 10 Este 0 995.2 0 37
2019-10-06 12:00:00 24 3 Este 11 Sudeste 0 995.5 0.8 42
2019-10-06 11:00:00 21.2 3 Nordeste 9 Este 0 995.5 1.2 47
2019-10-06 10:00:00 17 3 Este 7 Sudeste 0 995.2 1.3 64
2019-10-06 09:00:00 12.8 0 Calma 4 Sudeste 0 994.7 1 87
2019-10-06 08:00:00 11.1 0 Calma 8 Este 0 994.3 1.2 91
2019-10-06 07:00:00 11.5 2 Oeste 7 Oeste 0 993.9 0.7 91
2019-10-06 06:00:00 11.9 0 Calma 9 Este 0 993.7 0.3 87
2019-10-06 05:00:00 13.4 0 Calma 3 Sudeste 0 993.1 0.2 81
2019-10-06 04:00:00 13.5 0 Calma 5 Oeste 0 993.2 0.5 81
2019-10-06 03:00:00 15.2 0 Calma 6 Este 0 993.4 0.8 73
2019-10-06 02:00:00 15.6 0 Calma 5 Sudeste 0 992.9 0.5 71
2019-10-06 01:00:00 16.2 3 Sudeste 5 Sudeste 0 992.7 0.7 64
2019-10-06 00:00:00 17.4 0 Calma 5 Norte 0 992.6 1.4 58
2019-10-05 23:00:00 19 2 Noroeste 7 Este 0 992.4 1.8 51
2019-10-05 22:00:00 21.5 0 Calma 13 Sudoeste 0 992 1.9 41
2019-10-05 21:00:00 24.7 8 Sudoeste 14 Sudoeste 0 991.2 1.1 34
2019-10-05 20:00:00 26.2 9 Oeste 12 Oeste 0 990.6 0.4 31
2019-10-05 19:00:00 27.8 7 Oeste 15 Sudoeste 0 990.1 -0.4 29
2019-10-05 18:00:00 30.6 5 Oeste 13 Oeste 0 990.1 -0.8 24
2019-10-05 17:00:00 30.8 8 Oeste 16 Sudoeste 0 990.2 -1.5 23
2019-10-05 16:00:00 29.8 8 Oeste 18 Oeste 0 990.5 -2 28
2019-10-05 15:00:00 29.3 4 Noroeste 12 Oeste 0 990.9 -1.9 31
2019-10-05 14:00:00 27.4 0 Calma 10 Oeste 0 991.7 -1.2 34
2019-10-05 13:00:00 26.4 3 Nordeste 9 Nordeste 0 992.5 -0.2 37
2019-10-05 12:00:00 23.5 2 Sudoeste 8 Sudeste 0 992.8 0.5 41
2019-10-05 11:00:00 20.9 0 Calma 6 Este 0 992.9 0.9 48
2019-10-05 10:00:00 16.3 2 Sudeste 5 Sudeste 0 992.7 0.9 62
2019-10-05 09:00:00 13.9 0 Calma 0 Calma 0 992.3 0.7 81
2019-10-05 08:00:00 11.1 0 Calma 3 Sudoeste 0 992 0.3 89
2019-10-05 07:00:00 11.4 0 Calma 3 Este 0 991.8 0 89
2019-10-05 06:00:00 12 0 Calma 5 Sudeste 0 991.6 -0.3 83
2019-10-05 05:00:00 12.9 0 Calma 0 Calma 0 991.7 -0.1 82
2019-10-05 04:00:00 13.1 3 Este 5 Este 0 991.8 -0.2 77
2019-10-05 03:00:00 14.2 0 Calma 5 Sudeste 0 991.9 0.2 74
2019-10-05 02:00:00 15.5 0 Calma 5 Sudoeste 0 991.8 0.4 67
2019-10-05 01:00:00 16.1 0 Calma 12 Oeste 0 992 1.1 66
2019-10-05 00:00:00 17.3 2 Sudeste 8 Sudoeste 0 991.7 1.1 57
2019-10-04 23:00:00 18.8 2 Noroeste 5 Oeste 0 991.4 1 50
2019-10-04 22:00:00 21 3 Noroeste 7 Oeste 0 990.9 0.6 43
2019-10-04 21:00:00 23.3 5 Noroeste 13 Oeste 0 990.6 0.2 33
2019-10-04 20:00:00 23.5 5 Oeste 11 Oeste 0 990.4 -0.3 33
2019-10-04 19:00:00 29 6 Oeste 17 Oeste 0 990.3 -0.8 24
2019-10-04 18:00:00 29.9 9 Oeste 18 Oeste 0 990.4 -1.6 23
2019-10-04 17:00:00 29.9 9 Oeste 19 Oeste 0 990.7 -2.4 24
2019-10-04 16:00:00 29.6 5 Oeste 15 Oeste 0 991.1 -2.8 25
2019-10-04 15:00:00 28.1 0 Calma 10 Este 0 992 -2.7 28
2019-10-04 14:00:00 27.9 3 Nordeste 11 Sudeste 0 993.1 -2 32
2019-10-04 13:00:00 24.5 3 Sudeste 15 Este 0 993.9 -1.3 38
2019-10-04 12:00:00 21.9 6 Este 16 Este 0 994.7 -0.2 45
2019-10-04 11:00:00 18.9 7 Este 14 Este 0 995.1 0.7 50
2019-10-04 10:00:00 16.5 0 Calma 7 Este 0 995.2 1 61
2019-10-04 09:00:00 11.9 0 Calma 5 Este 0 994.9 0.5 84
2019-10-04 08:00:00 10.2 0 Calma 3 Sudeste 0 994.4 0.1 91
2019-10-04 07:00:00 10.5 0 Calma 3 Sudeste 0 994.2 -0.2 91
2019-10-04 06:00:00 10.8 0 Calma 5 Este 0 994.4 0.1 87
2019-10-04 05:00:00 11.5 0 Calma 5 Este 0 994.3 -0.4 81
2019-10-04 04:00:00 12.6 0 Calma -- -- 0 994.4 -0.1 77
2019-10-04 03:00:00 13 0 Calma -- -- 0 994.3 0 80
2019-10-04 02:00:00 13.6 0 Calma 3 Sudeste 0 994.7 0.9 78
2019-10-04 01:00:00 15.1 0 Calma 3 Sudoeste 0 994.5 1 71
2019-10-04 00:00:00 16 0 Calma 6 Noroeste 0 994.3 1.2 64
2019-10-03 23:00:00 16.8 0 Calma 5 Sudeste 0 993.8 0.8 57
2019-10-03 22:00:00 18.6 0 Calma 3 Sur 0 993.5 1 50
2019-10-03 21:00:00 21.6 4 Sudoeste 9 Sur 0 993.1 0.5 41
2019-10-03 20:00:00 25.1 6 Sudoeste 14 Sudoeste 0 993 0 33
2019-10-03 19:00:00 27.7 11 Oeste 18 Oeste 0 992.5 -0.9 30
2019-10-03 18:00:00 28.7 5 Sudoeste 16 Oeste 0 992.6 -1.2 28
2019-10-03 17:00:00 28.7 3 Sudoeste 18 Sudoeste 0 993 -2 27
2019-10-03 16:00:00 27.8 3 Oeste 20 Oeste 0 993.4 -2.2 30
2019-10-03 15:00:00 26.7 7 Sudoeste 17 Sudoeste 0 993.8 -2.2 33
2019-10-03 14:00:00 25.6 7 Noroeste 16 Oeste 0 995 -0.9 38
2019-10-03 13:00:00 23.4 3 Oeste 12 Sudoeste 0 995.6 -0.3 48
2019-10-03 12:00:00 20.8 2 Oeste 8 Sudeste 0 996 0.6 56
2019-10-03 11:00:00 19.6 3 Sudeste 8 Este 0 995.9 1 59
2019-10-03 10:00:00 16.4 2 Este 6 Este 0 995.9 1.5 65
2019-10-03 09:00:00 12.8 0 Calma 5 Este 0 995.4 1.1 85
2019-10-03 08:00:00 11.3 2 Este 5 Este 0 994.9 0.9 90
2019-10-03 07:00:00 12.3 0 Calma 3 Oeste 0 994.4 0.6 88
2019-10-03 06:00:00 12.2 0 Calma 3 Oeste 0 994.3 0.3 81
2019-10-03 05:00:00 12.6 0 Calma 6 Noroeste 0 994 -0.2 77
2019-10-03 04:00:00 13.6 3 Oeste 6 Oeste 0 993.8 -0.1 70
2019-10-03 03:00:00 13.4 2 Oeste 4 Oeste 0 994 0.3 64
2019-10-03 02:00:00 14.7 0 Calma 6 Sur 0 994.2 1.3 55
2019-10-03 01:00:00 16.7 7 Oeste 9 Oeste 0 993.9 1.4 48
2019-10-03 00:00:00 18 4 Este 12 Este 0 993.7 1.7 41
2019-10-02 23:00:00 19.1 6 Oeste 13 Oeste 0 992.9 1.6 38
2019-10-02 22:00:00 21 3 Oeste 12 Noroeste 0 992.5 1.9 34
2019-10-02 21:00:00 19.8 10 Oeste 13 Noroeste 0 992 1.3 33
2019-10-02 20:00:00 24.2 9 Oeste 23 Oeste 0 991.3 0.3 27
2019-10-02 19:00:00 28.6 11 Oeste 28 Oeste 0 990.6 -0.9 25
2019-10-02 18:00:00 28.9 15 Oeste 26 Oeste 0 990.7 -1.3 25
2019-10-02 17:00:00 28.9 12 Oeste 27 Sudoeste 0 991 -1.5 25
2019-10-02 16:00:00 28.7 15 Sudoeste 26 Oeste 0 991.5 -1.4 27
2019-10-02 15:00:00 28 14 Sudoeste 24 Sudoeste 0 992 -1.5 28
2019-10-02 14:00:00 26.4 14 Sudoeste 24 Oeste 0 992.5 -1.2 31
2019-10-02 13:00:00 24.8 12 Oeste 23 Oeste 0 992.9 -0.6 42
2019-10-02 12:00:00 22.6 10 Oeste 20 Sudoeste 0 993.5 0.4 47
2019-10-02 11:00:00 19.8 6 Noroeste 10 Noroeste 0 993.7 0.9 56
2019-10-02 10:00:00 17.7 3 Oeste 8 Noroeste 0 993.5 1 66
2019-10-02 09:00:00 13 5 Oeste 6 Oeste 0 993.1 0.8 88
2019-10-02 08:00:00 12.8 0 Calma 8 Noroeste 0 992.8 0.9 84
2019-10-02 07:00:00 16.3 5 Oeste 17 Sudoeste 0 992.5 0.5 69
2019-10-02 06:00:00 16.4 4 Oeste 13 Sudoeste 0 992.3 0 73
2019-10-02 05:00:00 15.1 2 Noroeste 12 Noroeste 0 991.9 -0.3 73
2019-10-02 04:00:00 14.6 6 Oeste 8 Noroeste 0 992 0.1 72
2019-10-02 03:00:00 15.2 9 Oeste 12 Noroeste 0 992.3 0.8 71
2019-10-02 02:00:00 18.6 0 Calma 9 Norte 0 992.2 0.9 57
2019-10-02 01:00:00 18.2 6 Oeste 12 Oeste 0 991.9 0.8 57
2019-10-02 00:00:00 17.3 6 Noroeste 12 Oeste 0 991.5 1.2 61
2019-10-01 23:00:00 17 8 Noroeste 12 Noroeste 0 991.3 1.7 60
2019-10-01 22:00:00 21.2 9 Oeste 10 Oeste 0 991.1 1.9 47
2019-10-01 21:00:00 23.2 6 Oeste 15 Noroeste 0 990.3 1.7 40
2019-10-01 20:00:00 24.7 9 Oeste 27 Noroeste 0 989.6 0.7 31
2019-10-01 19:00:00 28.9 18 Noroeste 27 Oeste 0 989.2 0.1 24
2019-10-01 18:00:00 31 17 Oeste 30 Oeste 0 988.6 -1.1 24
2019-10-01 17:00:00 30.1 17 Sudoeste 30 Sudoeste 0 988.9 -1.2 22
2019-10-01 16:00:00 30.3 15 Oeste 30 Sudoeste 0 989.1 -1.8 25
2019-10-01 15:00:00 29.4 15 Oeste 27 Oeste 0 989.7 -1.8 27
2019-10-01 14:00:00 29.9 6 Oeste 19 Oeste 0 990.1 -1.7 30
2019-10-01 13:00:00 26.9 5 Oeste 13 Oeste 0 990.9 -0.5 35
2019-10-01 12:00:00 25.1 0 Calma 9 Noroeste 0 991.5 0.7 41
2019-10-01 11:00:00 21.7 0 Calma 6 Sudeste 0 991.8 1.3 52
2019-10-01 10:00:00 17.9 0 Calma 3 Este 0 991.4 1.4 68
2019-10-01 09:00:00 14.5 0 Calma 5 Este 0 990.8 0.7 84
2019-10-01 08:00:00 14.1 0 Calma -- -- 0 990.5 0.3 84
2019-10-01 07:00:00 14.3 0 Calma -- -- 0 990 -0.4 81
2019-10-01 06:00:00 14.1 0 Calma 3 Este 0 990.1 -0.7 83
2019-10-01 05:00:00 14.3 0 Calma 6 Este 0 990.2 -0.4 78
2019-10-01 04:00:00 14.9 0 Calma 3 Sudeste 0 990.4 -0.2 75
2019-10-01 03:00:00 15.3 0 Calma -- -- 0 990.8 0.1 72
2019-10-01 02:00:00 16.2 0 Calma 5 Este 0 990.6 0.2 66
2019-10-01 01:00:00 17.3 0 Calma 4 Este 0 990.6 0.3 61
2019-10-01 00:00:00 18.5 0 Calma 4 Sudeste 0 990.7 0.6 56
2019-09-30 23:00:00 20 0 Calma 3 Norte 0 990.4 0.5 50
2019-09-30 22:00:00 22.3 0 Calma 7 Oeste 0 990.3 0.5 45
2019-09-30 21:00:00 24.3 4 Sudoeste 11 Sudoeste 0 990.1 0.4 34
2019-09-30 20:00:00 27.4 7 Sudoeste 10 Sudoeste 0 989.9 -0.5 28
2019-09-30 19:00:00 31.7 5 Sudoeste 12 Sudoeste 0 989.8 -1.2 22
2019-09-30 18:00:00 33.4 0 Calma 12 Sur 0 989.7 -2.1 21
2019-09-30 17:00:00 32.2 4 Sudoeste 12 Sur 0 990.4 -2.5 23
2019-09-30 16:00:00 32.3 5 Oeste 17 Sudoeste 0 991 -2.7 27
2019-09-30 15:00:00 29.7 6 Noroeste 13 Oeste 0 991.8 -2.3 35
2019-09-30 14:00:00 28.6 0 Calma 8 Noroeste 0 992.9 -1.5 38
2019-09-30 13:00:00 26 3 Norte 10 Este 0 993.7 -0.5 44
2019-09-30 12:00:00 24.1 0 Calma 7 Este 0 994.1 0.4 46
2019-09-30 11:00:00 21.1 5 Este 10 Este 0 994.4 0.9 49
2019-09-30 10:00:00 18.8 0 Calma 3 Este 0 994.2 1.1 58
2019-09-30 09:00:00 14.8 0 Calma 3 Sudeste 0 993.7 0.8 78
2019-09-30 08:00:00 12.5 0 Calma 4 Sudeste 0 993.5 0.7 86
2019-09-30 07:00:00 12.8 0 Calma -- -- 0 993.1 0 85
2019-09-30 06:00:00 13.3 0 Calma 6 Este 0 992.9 -0.5 82
2019-09-30 05:00:00 14.1 3 Este 4 Este 0 992.8 -0.4 77
2019-09-30 04:00:00 14.6 0 Calma 3 Oeste 0 993.1 0.1 74
2019-09-30 03:00:00 15.1 0 Calma -- -- 0 993.4 0.6 72
2019-09-30 02:00:00 16.2 0 Calma 4 Sudeste 0 993.2 0.8 65
2019-09-30 01:00:00 17.8 0 Calma 4 Noroeste 0 993 0.9 60
2019-09-30 00:00:00 18.2 4 Oeste 8 Oeste 0 992.8 1.3 58
2019-09-29 23:00:00 22.4 0 Calma 8 Sudoeste 0 992.4 1.4 43
2019-09-29 22:00:00 21.6 2 Noroeste 9 Oeste 0 992.1 1.1 39
2019-09-29 21:00:00 25.2 5 Oeste 10 Oeste 0 991.5 0.4 32
2019-09-29 20:00:00 28.2 8 Sudoeste 16 Oeste 0 991 -0.6 26
2019-09-29 19:00:00 32.1 10 Oeste 18 Oeste 0 991 -1 21
2019-09-29 18:00:00 33.3 8 Oeste 17 Noroeste 0 991.1 -1.8 21
2019-09-29 17:00:00 33.3 8 Oeste 17 Oeste 0 991.6 -2.4 20
2019-09-29 16:00:00 33 8 Noroeste 17 Oeste 0 992 -2.4 21
2019-09-29 15:00:00 32 3 Sudoeste 13 Oeste 0 992.9 -2 23
2019-09-29 14:00:00 30.2 3 Sudeste 11 Sudeste 0 994 -1 27
2019-09-29 13:00:00 28.6 3 Este 13 Este 0 994.4 -0.2 31
2019-09-29 12:00:00 25.3 6 Este 16 Este 0 994.9 0.5 36
2019-09-29 11:00:00 21.9 8 Este 17 Sudeste 0 995 0.9 47
2019-09-29 10:00:00 18.5 2 Este 7 Este 0 994.6 0.8 60
2019-09-29 09:00:00 14.3 0 Calma 3 Este 0 994.4 0.6 77
2019-09-29 08:00:00 11.6 0 Calma 4 Sur 0 994.1 0.4 85
2019-09-29 07:00:00 12.2 0 Calma 4 Este 0 993.8 0 81
2019-09-29 06:00:00 12.8 0 Calma 4 Oeste 0 993.8 -0.1 80
2019-09-29 05:00:00 12.9 0 Calma 6 Este 0 993.7 0 78
2019-09-29 04:00:00 13.6 3 Este 4 Este 0 993.8 0.1 74
2019-09-29 03:00:00 14.5 0 Calma 4 Este 0 993.9 0.4 67
2019-09-29 02:00:00 15.1 0 Calma 4 Este 0 993.7 0.7 64
2019-09-29 01:00:00 16.1 0 Calma 5 Oeste 0 993.7 1.3 60
2019-09-29 00:00:00 17.1 0 Calma 2 Sudeste 0 993.5 1.5 53
2019-09-28 23:00:00 18.3 0 Calma 5 Este 0 993 1.3 48
2019-09-28 22:00:00 19.9 0 Calma 5 Este 0 992.4 0.6 40
2019-09-28 21:00:00 23 0 Calma 6 Sudoeste 0 992 0 29
2019-09-28 20:00:00 26.9 3 Sudoeste 5 Sudoeste 0 991.7 -0.5 23
2019-09-28 19:00:00 33.2 2 Noroeste 9 Norte 0 991.8 -0.8 17
2019-09-28 18:00:00 33.4 0 Calma 12 Noroeste 0 992 -1.5 16
2019-09-28 17:00:00 32.8 3 Nordeste 11 Noroeste 0 992.2 -2.3 17
2019-09-28 16:00:00 32 4 Este 11 Sudeste 0 992.6 -2.6 18
2019-09-28 15:00:00 32.3 3 Nordeste 12 Sudeste 0 993.5 -2.2 23
2019-09-28 14:00:00 29.3 5 Este 13 Este 0 994.5 -1.6 27
2019-09-28 13:00:00 27.6 6 Este 16 Este 0 995.2 -0.5 31
2019-09-28 12:00:00 24.7 8 Sudeste 17 Este 0 995.7 0.3 35
2019-09-28 11:00:00 22.2 10 Este 17 Este 0 996.1 1.1 42
2019-09-28 10:00:00 18.9 6 Este 10 Este 0 995.7 1.1 55
2019-09-28 09:00:00 14.9 3 Este 7 Este 0 995.4 1.2 76
2019-09-28 08:00:00 12.1 0 Calma 3 Este 0 995 1 85
2019-09-28 07:00:00 12.6 2 Sudoeste 7 Este 0 994.6 0.4 83
2019-09-28 06:00:00 12.7 0 Calma 5 Sudeste 0 994.2 0 81
2019-09-28 05:00:00 13.4 0 Calma 3 Sudeste 0 994 -0.5 76
2019-09-28 04:00:00 13.9 0 Calma 3 Noroeste 0 994.2 -0.2 72
2019-09-28 03:00:00 14.5 0 Calma 4 Este 0 994.2 0.1 68
2019-09-28 02:00:00 15.2 0 Calma 3 Oeste 0 994.5 0.9 65
2019-09-28 01:00:00 16.2 0 Calma 5 Sudeste 0 994.4 1.2 62
2019-09-28 00:00:00 17.2 3 Sudeste 6 Este 0 994.1 1.6 54
2019-09-27 23:00:00 18.9 0 Calma 3 Sudoeste 0 993.6 1.6 45
2019-09-27 22:00:00 21.1 0 Calma 6 Sudoeste 0 993.2 1.3 35
2019-09-27 21:00:00 24.5 0 Calma 12 Sudoeste 0 992.5 0.6 26
2019-09-27 20:00:00 27.7 7 Sudoeste 13 Sudoeste 0 992 -0.2 23
2019-09-27 19:00:00 30.7 9 Oeste 18 Oeste 0 991.9 -0.7 20
2019-09-27 18:00:00 31.9 8 Oeste 17 Oeste 0 991.9 -1.5 19
2019-09-27 17:00:00 32.1 9 Sudoeste 16 Oeste 0 992.2 -2.1 20
2019-09-27 16:00:00 32.4 4 Oeste 15 Sudoeste 0 992.6 -2.1 22
2019-09-27 15:00:00 30.7 3 Noroeste 21 Noroeste 0 993.4 -2 25
2019-09-27 14:00:00 28.7 3 Noroeste 9 Noroeste 0 994.3 -1.5 30
2019-09-27 13:00:00 26.8 0 Calma 11 Este 0 994.7 -1.1 32
2019-09-27 12:00:00 24 6 Este 14 Este 0 995.4 -0.1 39
2019-09-27 11:00:00 20.7 6 Este 13 Este 0 995.8 0.6 49
2019-09-27 10:00:00 18 3 Sudeste 8 Sudeste 0 995.8 1 63
2019-09-27 09:00:00 14.8 0 Calma 6 Sudeste 0 995.5 0.9 80
2019-09-27 08:00:00 11.1 2 Este 5 Este 0 995.2 0.8 91
2019-09-27 07:00:00 11.9 2 Este 4 Este 0 994.8 0.5 85
2019-09-27 06:00:00 12.2 2 Sudeste 4 Este 0 994.6 0.3 81
2019-09-27 05:00:00 12.8 2 Este 4 Este 0 994.4 0.3 83
2019-09-27 04:00:00 13.6 0 Calma 3 Sur 0 994.3 0.2 82
2019-09-27 03:00:00 14 0 Calma 5 Noroeste 0 994.3 0.2 76
2019-09-27 02:00:00 14.9 0 Calma 0 Calma 0 994.1 0.4 70
2019-09-27 01:00:00 15.9 0 Calma 4 Oeste 0 994.1 0.9 66
2019-09-27 00:00:00 17.1 0 Calma 5 Sur 0 994.1 1.6 59
2019-09-26 23:00:00 18.4 2 Este 6 Sudeste 0 993.7 1.5 50
2019-09-26 22:00:00 20.1 0 Calma 5 Oeste 0 993.2 1.2 43
2019-09-26 21:00:00 23.4 0 Calma 10 Sudoeste 0 992.5 0.4 31
2019-09-26 20:00:00 26 5 Sudoeste 12 Sudoeste 0 992.2 -0.3 26
2019-09-26 19:00:00 30.2 7 Oeste 17 Oeste 0 992 -0.9 21
2019-09-26 18:00:00 31.3 6 Oeste 18 Noroeste 0 992.1 -1.2 21
2019-09-26 17:00:00 30.9 8 Oeste 19 Noroeste 0 992.5 -1.5 22
2019-09-26 16:00:00 30.7 6 Oeste 17 Oeste 0 992.9 -1.9 23
2019-09-26 15:00:00 29.2 6 Noroeste 14 Noroeste 0 993.3 -1.9 24
2019-09-26 14:00:00 30.2 0 Calma 9 Sudeste 0 994 -1.3 27
2019-09-26 13:00:00 26.9 3 Nordeste 11 Este 0 994.8 -0.1 31
2019-09-26 12:00:00 24 5 Este 13 Este 0 995.2 0.6 37
2019-09-26 11:00:00 21.8 4 Este 11 Sudeste 0 995.3 1.3 46
2019-09-26 10:00:00 18 0 Calma 5 Este 0 994.9 1.2 60
2019-09-26 09:00:00 14.7 0 Calma 4 Este 0 994.6 1.2 79
2019-09-26 08:00:00 12 0 Calma 5 Este 0 994 0.8 88
2019-09-26 07:00:00 12.2 2 Sudeste 5 Este 0 993.7 0.9 85
2019-09-26 06:00:00 12.6 0 Calma 4 Sudeste 0 993.4 0.6 84
2019-09-26 05:00:00 13.3 0 Calma -- -- 0 993.2 0.2 84
2019-09-26 04:00:00 13.7 0 Calma 4 Este 0 992.8 -0.2 77
2019-09-26 03:00:00 14.8 2 Este 5 Sudoeste 0 992.8 -0.1 75
2019-09-26 02:00:00 16.2 0 Calma 5 Sudeste 0 993 0.5 69
2019-09-26 01:00:00 16.3 0 Calma 7 Este 0 993 0.9 67
2019-09-26 00:00:00 17.8 3 Este 7 Sudeste 0 992.9 1.4 56
2019-09-25 23:00:00 19 0 Calma 5 Sur 0 992.5 1.4 51
2019-09-25 22:00:00 21 0 Calma 7 Sudoeste 0 992.1 1.2 45
2019-09-25 21:00:00 22.4 2 Noroeste 8 Sudoeste 0 991.5 0.7 38
2019-09-25 20:00:00 26 6 Sudoeste 12 Oeste 0 991.1 0.1 29
2019-09-25 19:00:00 28.8 5 Noroeste 16 Oeste 0 990.9 -0.8 24
2019-09-25 18:00:00 29.6 9 Sudoeste 17 Sudoeste 0 990.8 -1.5 23
2019-09-25 17:00:00 30.2 8 Sudoeste 17 Oeste 0 991 -2.1 24
2019-09-25 16:00:00 29 6 Oeste 21 Noroeste 0 991.7 -2.1 26
2019-09-25 15:00:00 28.3 9 Oeste 21 Oeste 0 992.3 -1.9 27
2019-09-25 14:00:00 27.7 9 Oeste 21 Oeste 0 993.1 -1.1 35
2019-09-25 13:00:00 25.7 9 Oeste 19 Sudoeste 0 993.8 -0.2 42
2019-09-25 12:00:00 24.6 6 Oeste 14 Oeste 0 994.2 0.6 42
2019-09-25 11:00:00 22.6 8 Sudoeste 12 Sudoeste 0 994.2 1.2 52
2019-09-25 10:00:00 21.7 0 Calma 5 Sudeste 0 994 1.3 63
2019-09-25 09:00:00 17.2 2 Este 6 Este 0 993.6 0.8 79
2019-09-25 08:00:00 14.8 3 Sudeste 5 Sudeste 0 993 0.3 89
2019-09-25 07:00:00 16 0 Calma 2 Sudoeste 0 992.7 -0.4 86
2019-09-25 06:00:00 16.1 0 Calma 7 Este 0 992.8 -0.3 83
2019-09-25 05:00:00 16.5 2 Este 4 Este 0 992.7 -0.3 80
2019-09-25 04:00:00 17 0 Calma 4 Norte 0 993.1 0 74
2019-09-25 03:00:00 17.8 0 Calma 7 Este 0 993.1 0.1 70
2019-09-25 02:00:00 19.7 0 Calma 6 Sudoeste 0 993 0.1 62
2019-09-25 01:00:00 19.8 0 Calma 6 Sudoeste 0 993.1 0.6 57
2019-09-25 00:00:00 21.1 5 Oeste 10 Oeste 0 993 0.9 48
2019-09-24 23:00:00 20.7 5 Sudoeste 12 Norte 0 992.9 1.2 48
2019-09-24 22:00:00 21.7 0 Calma 7 Noroeste 0 992.5 0.8 37
2019-09-24 21:00:00 24.8 6 Sudoeste 11 Sudoeste 0 992.1 0.1 30
2019-09-24 20:00:00 26.9 5 Oeste 10 Oeste 0 991.7 -0.8 25
2019-09-24 19:00:00 30.3 8 Sudoeste 15 Sudoeste 0 991.7 -1.4 21
2019-09-24 18:00:00 31.2 10 Sudoeste 18 Sudoeste 0 992 -2 20
2019-09-24 17:00:00 31.4 4 Oeste 15 Sudoeste 0 992.5 -2.5 20
2019-09-24 16:00:00 30.7 5 Sudoeste 15 Sudoeste 0 993.1 -2.9 20
2019-09-24 15:00:00 29.7 5 Sudoeste 15 Sudoeste 0 994 -2.9 22
2019-09-24 14:00:00 28.6 5 Sur 14 Sudeste 0 995 -2.2 23
2019-09-24 13:00:00 26.8 0 Calma 12 Este 0 996 -0.7 31
2019-09-24 12:00:00 24.1 3 Este 10 Este 0 996.9 0.7 38
2019-09-24 11:00:00 20.4 4 Este 14 Sudeste 0 997.2 1.4 50
2019-09-24 10:00:00 18.4 0 Calma 6 Sur 0 996.7 1.2 60
2019-09-24 09:00:00 14 0 Calma 5 Este 0 996.2 0.8 84
2019-09-24 08:00:00 11.9 0 Calma 4 Sudeste 0 995.8 0.7 92
2019-09-24 07:00:00 12.3 0 Calma 3 Sudeste 0 995.5 0.5 91
2019-09-24 06:00:00 12.7 0 Calma 5 Este 0 995.4 0.1 88
2019-09-24 05:00:00 13.4 0 Calma 2 Sur 0 995.1 -0.3 88
2019-09-24 04:00:00 13.7 0 Calma 4 Este 0 995 -0.4 85
2019-09-24 03:00:00 14.6 0 Calma -- -- 0 995.3 -0.4 81
2019-09-24 02:00:00 14.8 0 Calma 6 Este 0 995.4 -0.1 75
2019-09-24 01:00:00 15.9 0 Calma 4 Sur 0 995.4 0.3 70
2019-09-24 00:00:00 17.2 0 Calma 6 Este 0 995.7 1 62
2019-09-23 23:00:00 18 2 Sudeste 5 Este 0 995.5 1.3 57
2019-09-23 22:00:00 19.8 0 Calma 6 Oeste 0 995.1 1.2 49
2019-09-23 21:00:00 21.2 0 Calma 5 Sur 0 994.7 0.7 42
2019-09-23 20:00:00 24.5 2 Sur 8 Oeste 0 994.2 0 32
2019-09-23 19:00:00 28.2 4 Sur 8 Sudoeste 0 993.9 -0.5 24
2019-09-23 18:00:00 27.5 5 Sudoeste 9 Sudoeste 0 994 -0.9 26
2019-09-23 17:00:00 28.8 3 Oeste 9 Sudoeste 0 994.2 -1.2 25
2019-09-23 16:00:00 27.6 3 Sur 12 Este 0 994.4 -1.9 27
2019-09-23 15:00:00 27.1 2 Este 11 Este 0 994.9 -1.9 27
2019-09-23 14:00:00 26.3 3 Nordeste 12 Este 0 995.4 -1.8 31
2019-09-23 13:00:00 24.6 4 Sudeste 15 Este 0 996.3 -0.6 35
2019-09-23 12:00:00 22.2 7 Este 13 Este 0 996.8 0.6 45
2019-09-23 11:00:00 20.8 0 Calma 6 Este 0 997.2 1.2 54
2019-09-23 10:00:00 17.6 0 Calma 4 Este 0 996.9 1.6 77
2019-09-23 09:00:00 13.3 0 Calma 2 Sudeste 0 996.2 1.5 94
2019-09-23 08:00:00 11.9 0 Calma 4 Este 0 996 1.5 94
2019-09-23 07:00:00 12.6 0 Calma 3 Sudeste 0 995.3 1.2 94
2019-09-23 06:00:00 12.6 0 Calma 4 Este 0 994.7 0.4 94
2019-09-23 05:00:00 13.3 0 Calma -- -- 0 994.5 0.3 94
2019-09-23 04:00:00 13.3 0 Calma 2 Este 0 994.1 -0.1 94
2019-09-23 03:00:00 14.4 0 Calma 4 Sudeste 0 994.3 0.1 93
2019-09-23 02:00:00 15.1 0 Calma 6 Sudeste 0 994.2 0.5 91
2019-09-23 01:00:00 16.3 0 Calma 5 Este 0 994.2 1.1 89
2019-09-23 00:00:00 16.5 0 Calma 5 Este 0 994.2 1.9 87
2019-09-22 23:00:00 18 0 Calma 4 Sudoeste 0 993.7 2.1 80
2019-09-22 22:00:00 19.9 0 Calma 8 Este 0 993.1 1.6 71
2019-09-22 21:00:00 19.8 0 Calma 4 Sudoeste 0 992.3 1.1 66
2019-09-22 20:00:00 21.8 3 Sudoeste 11 Oeste 0 991.6 0.4 55
2019-09-22 19:00:00 24.3 7 Sudoeste 17 Oeste 0 991.5 -0.3 45
2019-09-22 18:00:00 24.7 14 Oeste 24 Noroeste 0 991.2 -0.5 44
2019-09-22 17:00:00 24 12 Oeste 24 Oeste 0 991.2 -0.6 50
2019-09-22 16:00:00 23.4 14 Oeste 23 Oeste 0 991.8 0 64
2019-09-22 15:00:00 21.4 12 Noroeste 23 Sudoeste 0 991.7 -0.1 75
2019-09-22 14:00:00 22 10 Sudoeste 19 Oeste 0 991.8 0.1 78
2019-09-22 13:00:00 20.5 14 Noroeste 21 Noroeste 0 991.8 0.4 78
2019-09-22 12:00:00 21 14 Sudoeste 23 Oeste 0 991.8 1 72
2019-09-22 11:00:00 21.8 11 Oeste 19 Sudoeste 0 991.7 1.2 63
2019-09-22 10:00:00 21.3 4 Noroeste 10 Noroeste 0 991.4 1.3 68
2019-09-22 09:00:00 19.7 0 Calma 6 Sudoeste 0 990.8 0.9 85
2019-09-22 08:00:00 18.9 0 Calma -- -- 0 990.5 0.6 90
2019-09-22 07:00:00 18.6 0 Calma 5 Sur 0 990.1 -0.1 88
2019-09-22 06:00:00 18.8 3 Sudoeste 9 Sudoeste 0 989.9 -0.5 88
2019-09-22 05:00:00 18.8 7 Oeste 14 Oeste 0 989.9 0 87
2019-09-22 04:00:00 18.7 10 Oeste 13 Sudoeste 0 990.2 0.1 87
2019-09-22 03:00:00 19.6 9 Oeste 17 Oeste 0 990.4 -0.2 83
2019-09-22 02:00:00 19.1 0 Calma 10 Sudoeste 0 989.9 -0.3 90
2019-09-22 01:00:00 19.4 5 Sudoeste 10 Sudoeste 0.2 990.1 0.2 88
2019-09-22 00:00:00 20.8 4 Sudoeste 9 Sudoeste 0.1 990.6 1.4 70
2019-09-21 23:00:00 21.4 5 Sudoeste 9 Sudoeste 0 990.2 1.5 61
2019-09-21 22:00:00 22 8 Oeste 14 Oeste 0 989.9 1.1 57
2019-09-21 21:00:00 21.3 9 Oeste 12 Sudoeste 0 989.2 0.3 64
2019-09-21 20:00:00 22.5 9 Oeste 15 Oeste 0 988.7 -0.3 60
2019-09-21 19:00:00 23.5 9 Oeste 21 Oeste 0 988.8 -0.4 57
2019-09-21 18:00:00 23.8 11 Oeste 20 Oeste 0 988.9 -0.4 57
2019-09-21 17:00:00 22.9 10 Oeste 24 Oeste 0 989 -1 67
2019-09-21 16:00:00 24.1 14 Oeste 23 Oeste 0 989.2 -1.1 56
2019-09-21 15:00:00 24.9 6 Oeste 19 Oeste 0 989.3 -1.1 54
2019-09-21 14:00:00 23.8 6 Oeste 17 Oeste 0 990 -0.2 58
2019-09-21 13:00:00 22.8 4 Noroeste 9 Noroeste 0 990.3 0.2 63
2019-09-21 12:00:00 22.9 2 Noroeste 11 Oeste 0 990.4 0.5 61
2019-09-21 11:00:00 22 2 Sudoeste 8 Oeste 0 990.2 0.6 63
2019-09-21 10:00:00 21 0 Calma 5 Norte 0 990.1 0.5 72
2019-09-21 09:00:00 20.4 0 Calma -- -- 0 989.9 0.5 84
2019-09-21 08:00:00 19 0 Calma 10 Sudoeste 0 989.6 0.4 86
2019-09-21 07:00:00 19.3 5 Sudoeste 6 Sudoeste 0 989.6 0.3 86
2019-09-21 06:00:00 18.8 2 Oeste 6 Oeste 0 989.4 -0.3 89
2019-09-21 05:00:00 19.4 0 Calma 9 Oeste 0 989.2 -0.7 87
2019-09-21 04:00:00 19.8 6 Noroeste 8 Noroeste 0 989.3 -0.6 84
2019-09-21 03:00:00 20 4 Sudoeste 6 Oeste 0 989.7 -0.2 83
2019-09-21 02:00:00 20.4 4 Oeste 10 Sudoeste 0 989.9 0 79
2019-09-21 01:00:00 20.3 4 Oeste 11 Oeste 0 989.9 0.5 79
2019-09-21 00:00:00 20.5 0 Calma 19 Oeste 0 989.9 1.2 74
2019-09-20 23:00:00 22.1 10 Oeste 17 Oeste 0 989.9 1.6 64
2019-09-20 22:00:00 21.4 6 Oeste 11 Oeste 0 989.4 0.8 69
2019-09-20 21:00:00 23.2 5 Oeste 17 Oeste 0 988.7 0 56
2019-09-20 20:00:00 24.8 10 Oeste 19 Oeste 0 988.3 -0.4 50
2019-09-20 19:00:00 25.6 4 Oeste 9 Oeste 0 988.6 -0.3 46
2019-09-20 18:00:00 26.1 5 Sudoeste 15 Oeste 0 988.7 -1 43
2019-09-20 17:00:00 26.2 9 Noroeste 17 Noroeste 0 988.7 -1.6 42
2019-09-20 16:00:00 27 4 Sudoeste 15 Oeste 0 988.9 -2 41
2019-09-20 15:00:00 26.5 8 Oeste 15 Oeste 0 989.7 -1.3 41
2019-09-20 14:00:00 25.2 8 Noroeste 21 Noroeste 0 990.3 -0.9 43
2019-09-20 13:00:00 24.6 9 Oeste 17 Oeste 0 990.9 -0.1 47
2019-09-20 12:00:00 23.2 3 Noroeste 8 Noroeste 0 991 0.4 54
2019-09-20 11:00:00 21 3 Noroeste 9 Oeste 0 991.2 0.8 67
2019-09-20 10:00:00 19.6 0 Calma 4 Este 0 991 0.7 74
2019-09-20 09:00:00 16.9 0 Calma 5 Este 0 990.6 0.2 90
2019-09-20 08:00:00 15.8 0 Calma 4 Sudoeste 0 990.4 -0.2 91
2019-09-20 07:00:00 15.8 0 Calma 6 Oeste 0 990.3 -0.5 91
2019-09-20 06:00:00 16.5 0 Calma 4 Este 0 990.4 -0.6 87
2019-09-20 05:00:00 17.4 2 Sudeste 6 Oeste 0 990.6 -0.1 84
2019-09-20 04:00:00 17.7 3 Noroeste 5 Noroeste 0 990.8 0.2 83
2019-09-20 03:00:00 19 2 Sudeste 5 Sudeste 0 991 0.4 77
2019-09-20 02:00:00 19 2 Noroeste 6 Oeste 0 990.7 0.2 74
2019-09-20 01:00:00 19.2 0 Calma 3 Oeste 0 990.6 0.3 74
2019-09-20 00:00:00 20.4 0 Calma 7 Este 0 990.6 0.8 70
2019-09-19 23:00:00 21 0 Calma 5 Sudoeste 0 990.5 1.1 63
2019-09-19 22:00:00 22.7 0 Calma 6 Oeste 0 990.3 1.1 50
2019-09-19 21:00:00 23.7 3 Oeste 5 Noroeste 0 989.8 0.5 43
2019-09-19 20:00:00 26.2 3 Oeste 11 Noroeste 0 989.4 -0.3 38
2019-09-19 19:00:00 29.4 9 Noroeste 16 Noroeste 0 989.2 -0.9 30
2019-09-19 18:00:00 30.3 8 Oeste 18 Noroeste 0 989.3 -1.6 28
2019-09-19 17:00:00 30.5 10 Oeste 24 Oeste 0 989.7 -2.1 29
2019-09-19 16:00:00 30.5 4 Oeste 14 Oeste 0 990.1 -2.3 29
2019-09-19 15:00:00 30.3 0 Calma 14 Sudoeste 0 990.9 -2 30
2019-09-19 14:00:00 28.5 0 Calma 9 Este 0 991.8 -1.4 32
2019-09-19 13:00:00 25.6 2 Sudeste 9 Sudeste 0 992.4 -0.5 36
2019-09-19 12:00:00 24.7 0 Calma 7 Nordeste 0 992.9 0.3 44
2019-09-19 11:00:00 23.2 0 Calma 8 Este 0 993.2 0.9 53
2019-09-19 10:00:00 19.9 2 Este 5 Sur 0 992.9 0.8 67
2019-09-19 09:00:00 17.1 0 Calma 7 Norte 0 992.6 0.7 88
2019-09-19 08:00:00 15.6 2 Sudeste 6 Sudeste 0 992.3 0.4 92
2019-09-19 07:00:00 15.7 0 Calma 4 Oeste 0 992.1 0.1 91
2019-09-19 06:00:00 16.3 0 Calma 4 Sudoeste 0 991.9 -0.3 89
2019-09-19 05:00:00 17 4 Oeste 5 Oeste 0 991.9 -0.1 84
2019-09-19 04:00:00 17.2 4 Oeste 5 Noroeste 0 992 0.1 80
2019-09-19 03:00:00 17.5 0 Calma 8 Noroeste 0 992.2 0.5 85
2019-09-19 02:00:00 16.2 6 Noroeste 11 Noroeste 0 992 0.5 89
2019-09-19 01:00:00 18.3 4 Oeste 6 Oeste 0 991.9 0.9 79
2019-09-19 00:00:00 19.4 0 Calma -- -- -- 991.7 1.4 74
2019-09-18 23:00:00 20.6 0 Calma 4 Este 0 991.5 1.6 66
2019-09-18 22:00:00 23.2 4 Noroeste 13 Oeste 0 991 1.3 49
2019-09-18 21:00:00 24.7 9 Oeste 13 Oeste 0 990.3 0.5 44
2019-09-18 20:00:00 25.5 9 Oeste 20 Oeste 0 989.9 -0.1 39
2019-09-18 19:00:00 29.1 9 Oeste 15 Noroeste 0 989.7 -0.8 33
2019-09-18 18:00:00 29.7 9 Oeste 18 Oeste 0 989.8 -1.3 33
2019-09-18 17:00:00 30.5 8 Sudoeste 16 Sudoeste 0 990 -1.9 31
2019-09-18 16:00:00 29.8 3 Oeste 13 Oeste 0 990.5 -1.9 33
2019-09-18 15:00:00 29.4 0 Calma 13 Sudoeste 0 991.1 -1.6 39
2019-09-18 14:00:00 28.2 0 Calma 8 Sudeste 0 991.9 -0.7 45
2019-09-18 13:00:00 25.7 2 Noroeste 9 Sudoeste 0 992.4 0.2 52
2019-09-18 12:00:00 24.7 0 Calma 12 Noroeste 0 992.7 0.9 58
2019-09-18 11:00:00 22.7 0 Calma 9 Oeste 0 992.6 1.3 63
2019-09-18 10:00:00 21.4 0 Calma 2 Noroeste 0 992.2 1.5 78
2019-09-18 09:00:00 17.8 0 Calma 3 Este 0 991.8 1.1 92
2019-09-18 08:00:00 17.2 0 Calma 2 Sudoeste 0 991.3 0.5 92
2019-09-18 07:00:00 17.1 0 Calma 2 Oeste 0 990.7 0.1 92
2019-09-18 06:00:00 17.5 0 Calma 4 Sudeste 0 990.7 -0.5 92
2019-09-18 05:00:00 18.1 0 Calma 3 Sudoeste 0 990.8 -0.1 91
2019-09-18 04:00:00 17.9 4 Oeste 5 Oeste 0 990.6 -0.4 91
2019-09-18 03:00:00 18.6 0 Calma 6 Oeste 0 991.2 0.5 91
2019-09-18 02:00:00 19.2 0 Calma 4 Noroeste 0 990.9 0.6 89
2019-09-18 01:00:00 19.5 0 Calma 7 Oeste 0 991 0.9 88
2019-09-18 00:00:00 19.4 3 Oeste 6 Oeste 0 990.7 0.9 87
2019-09-17 23:00:00 21.1 3 Este 6 Este 0 990.3 0.8 78
2019-09-17 22:00:00 22.8 3 Sudoeste 6 Oeste 0 990.1 0.9 69
2019-09-17 21:00:00 22.8 6 Oeste 9 Oeste 0 989.8 0.8 65
2019-09-15 18:00:00 28.2 8 Oeste 19 Oeste 0 992.2 -1 47
2019-09-15 17:00:00 28.1 11 Oeste 19 Oeste 0 992.5 -1.4 46
2019-09-15 16:00:00 28 10 Oeste 21 Sudoeste 0 992.9 -1.5 45
2019-09-15 15:00:00 27.2 7 Oeste 15 Oeste 0.1 993.2 -1.5 48
2019-09-15 14:00:00 27.1 3 Sudoeste 9 Oeste 0 993.9 -0.9 46
2019-09-15 13:00:00 25.7 0 Calma 8 Este 0 994.4 0.1 54
2019-09-15 12:00:00 23.7 0 Calma 9 Sur 0 994.7 0.7 64
2019-09-15 11:00:00 23 0 Calma 6 Este 0 994.8 1.3 69
2019-09-15 10:00:00 21.8 0 Calma 8 Sudoeste 0 994.3 1.1 91
2019-09-15 09:00:00 19.3 6 Noroeste 19 Oeste 2.1 994 0.9 92
2019-09-15 08:00:00 18.6 2 Noroeste 7 Noroeste 0 993.5 -0.1 92
2019-09-15 07:00:00 18.6 2 Este 6 Sur 0 993.2 -0.9 92
2019-09-15 06:00:00 18.2 0 Calma 5 Noroeste 0 993.1 -0.8 92
2019-09-15 05:00:00 18.5 0 Calma 6 Sudeste 0 993.6 -0.4 92
2019-09-15 04:00:00 18.9 0 Calma 3 Sur 0 994.1 0 92
2019-09-15 03:00:00 18.7 2 Sudeste 5 Oeste 0 993.9 0 92
2019-09-15 02:00:00 19.2 0 Calma 10 Oeste 0 994 0.3 92
2019-09-15 01:00:00 19.3 4 Oeste 30 Sudoeste 7.3 994.1 0.9 91
2019-09-15 00:00:00 20.5 0 Calma 3 Sudoeste 0 993.9 0.9 84
2019-09-14 23:00:00 20.2 0 Calma 4 Sudoeste 0 993.7 1.2 88
2019-09-14 22:00:00 21.1 0 Calma 4 Sudoeste 0 993.2 0.7 80
2019-09-14 21:00:00 21.5 0 Calma 10 Noroeste 0 993 0.3 83
2019-09-14 20:00:00 24.2 0 Calma 9 Sudeste 0 992.5 -0.9 63
2019-09-14 19:00:00 26.2 4 Sudeste 15 Este 0 992.5 -1.5 48
2019-09-14 18:00:00 26.6 3 Este 14 Este 0 992.7 -2 44
2019-09-14 17:00:00 26.3 4 Oeste 18 Este 0 993.4 -2.3 47
2019-09-14 16:00:00 24.7 2 Este 17 Este 0 994 -2 51
2019-09-14 15:00:00 21.9 8 Este 22 Este 0 994.7 -1.3 66
2019-09-14 14:00:00 20.4 10 Este 24 Este 0 995.7 -0.6 76
2019-09-14 13:00:00 17.8 10 Este 23 Este 4 996 -0.3 92
2019-09-14 12:00:00 17.9 10 Este 23 Este 1.9 996 0 92
2019-09-14 11:00:00 17.3 8 Sudeste 17 Este 2.7 996.3 1.2 92
2019-09-14 10:00:00 17.2 4 Sudeste 12 Sudeste 3.2 996.3 1.7 93
2019-09-14 09:00:00 17.1 0 Calma 24 Este 3.1 996 1.8 92
2019-09-14 08:00:00 17.8 10 Este 24 Este 1.8 995.1 0.9 88
2019-09-14 07:00:00 18.3 9 Sudeste 19 Sur 0.5 994.6 -0.3 79
2019-09-14 06:00:00 18.5 0 Calma 16 Sur 0 994.2 -0.4 80
2019-09-14 05:00:00 18.8 6 Sudeste 13 Sur 0 994.2 -1.6 84
2019-09-14 04:00:00 18.8 3 Este 14 Sudeste 0 994.9 -0.7 82
2019-09-14 03:00:00 18.5 4 Sudeste 14 Este 0.9 994.6 -1.2 84
2019-09-14 02:00:00 19.7 10 Sudeste 23 Sudeste 0.3 995.8 0.2 74
2019-09-14 01:00:00 18.6 0 Calma 5 Este 0 995.6 -0.2 87
2019-09-14 00:00:00 17.3 0 Calma 6 Sudeste 0 995.8 0.5 90